Terminal Aerodrome Forecast
Issued by NWS St Louis, MO

Home | Current Version | Previous Version | Text Only | Print | Product List | Glossary On
Versions: 1 2 3 4 5 6 7 8 9 10 11 12 13 14 15 16 17 18 19 20 21 22 23 24 25
000
FTUS43 KLSX 211700
TAFCOU
TAF
KCOU 211736Z 2118/2218 13012KT P6SM OVC035
     FM212200 15010KT P6SM VCSH OVC025
     FM220400 16010KT P6SM -SHRA OVC015 WS020/21045KT
     FM221400 18012KT P6SM VCSH SCT015 OVC025=

USA.gov is the U.S. government's official web portal to all federal, state and local government web resources and services.